sensor_id;sensor_type;location;lat;lon;timestamp;pressure;altitude;pressure_sealevel;temperature;humidity
35704;BME280;21820;51.112;13.762;2023-04-23T00:01:55;98669.03;;;22.36;50.01
35704;BME280;21820;51.112;13.762;2023-04-23T00:04:24;98671.50;;;22.38;50.50
35704;BME280;21820;51.112;13.762;2023-04-23T00:06:50;98665.94;;;22.25;47.72
35704;BME280;21820;51.112;13.762;2023-04-23T00:09:17;98656.50;;;22.00;47.29
35704;BME280;21820;51.112;13.762;2023-04-23T00:11:42;98659.13;;;22.08;47.04
35704;BME280;21820;51.112;13.762;2023-04-23T00:14:08;98656.16;;;22.19;46.51
35704;BME280;21820;51.112;13.762;2023-04-23T00:16:34;98656.47;;;22.16;46.82
35704;BME280;21820;51.112;13.762;2023-04-23T00:18:59;98654.19;;;22.21;46.45
35704;BME280;21820;51.112;13.762;2023-04-23T00:21:25;98652.84;;;22.25;46.50
35704;BME280;21820;51.112;13.762;2023-04-23T00:23:51;98644.06;;;22.18;46.34
35704;BME280;21820;51.112;13.762;2023-04-23T00:26:17;98648.97;;;22.13;46.69
35704;BME280;21820;51.112;13.762;2023-04-23T00:28:42;98637.50;;;22.14;46.31
35704;BME280;21820;51.112;13.762;2023-04-23T00:31:08;98636.53;;;22.07;46.16
35704;BME280;21820;51.112;13.762;2023-04-23T00:33:33;98634.56;;;22.09;46.41
35704;BME280;21820;51.112;13.762;2023-04-23T00:35:58;98616.59;;;21.98;46.48
35704;BME280;21820;51.112;13.762;2023-04-23T00:38:24;98622.47;;;22.08;46.64
35704;BME280;21820;51.112;13.762;2023-04-23T00:40:50;98624.56;;;22.12;46.64
35704;BME280;21820;51.112;13.762;2023-04-23T00:43:16;98627.03;;;22.14;45.75
35704;BME280;21820;51.112;13.762;2023-04-23T00:45:41;98620.19;;;22.05;45.88
35704;BME280;21820;51.112;13.762;2023-04-23T00:48:07;98629.00;;;22.12;45.76
35704;BME280;21820;51.112;13.762;2023-04-23T00:50:32;98629.00;;;22.12;46.50
35704;BME280;21820;51.112;13.762;2023-04-23T00:52:58;98629.31;;;22.09;45.66
35704;BME280;21820;51.112;13.762;2023-04-23T00:55:24;98630.91;;;22.34;47.58
35704;BME280;21820;51.112;13.762;2023-04-23T00:57:49;98630.63;;;22.21;48.42
35704;BME280;21820;51.112;13.762;2023-04-23T01:00:15;98632.56;;;22.27;49.40
35704;BME280;21820;51.112;13.762;2023-04-23T01:02:42;98627.31;;;22.27;49.52
35704;BME280;21820;51.112;13.762;2023-04-23T01:05:09;98637.94;;;22.33;49.27
35704;BME280;21820;51.112;13.762;2023-04-23T01:07:35;98636.16;;;22.34;49.37
35704;BME280;21820;51.112;13.762;2023-04-23T01:10:05;98638.44;;;22.37;50.08
35704;BME280;21820;51.112;13.762;2023-04-23T01:12:30;98636.47;;;22.39;49.83
35704;BME280;21820;51.112;13.762;2023-04-23T01:14:55;98636.97;;;22.42;49.94
35704;BME280;21820;51.112;13.762;2023-04-23T01:17:21;98636.78;;;22.44;49.81
35704;BME280;21820;51.112;13.762;2023-04-23T01:19:47;98630.56;;;22.45;50.19
35704;BME280;21820;51.112;13.762;2023-04-23T01:22:13;98637.84;;;22.11;47.54
35704;BME280;21820;51.112;13.762;2023-04-23T01:24:39;98642.25;;;22.10;46.38
35704;BME280;21820;51.112;13.762;2023-04-23T01:27:06;98637.47;;;22.22;46.07
35704;BME280;21820;51.112;13.762;2023-04-23T01:29:32;98644.06;;;22.18;46.38
35704;BME280;21820;51.112;13.762;2023-04-23T01:31:58;98632.06;;;22.23;46.73
35704;BME280;21820;51.112;13.762;2023-04-23T01:34:24;98635.22;;;22.11;46.31
35704;BME280;21820;51.112;13.762;2023-04-23T01:36:49;98643.41;;;22.16;45.87
35704;BME280;21820;51.112;13.762;2023-04-23T01:39:16;98634.38;;;22.10;46.51
35704;BME280;21820;51.112;13.762;2023-04-23T01:41:42;98637.50;;;22.14;46.31
35704;BME280;21820;51.112;13.762;2023-04-23T01:44:07;98637.50;;;22.14;46.54
35704;BME280;21820;51.112;13.762;2023-04-23T01:46:33;98630.97;;;22.10;46.50
35704;BME280;21820;51.112;13.762;2023-04-23T01:48:58;98630.66;;;22.13;45.82
35704;BME280;21820;51.112;13.762;2023-04-23T01:51:24;98630.31;;;22.16;45.95
35704;BME280;21820;51.112;13.762;2023-04-23T01:53:51;98621.47;;;22.09;46.32
35704;BME280;21820;51.112;13.762;2023-04-23T01:56:18;98624.41;;;22.14;46.04
35704;BME280;21820;51.112;13.762;2023-04-23T01:58:47;98632.59;;;22.11;46.08
35704;BME280;21820;51.112;13.762;2023-04-23T02:01:12;98631.13;;;22.08;45.91
35704;BME280;21820;51.112;13.762;2023-04-23T02:03:37;98632.56;;;22.27;46.34
35704;BME280;21820;51.112;13.762;2023-04-23T02:06:03;98631.28;;;22.23;48.51
35704;BME280;21820;51.112;13.762;2023-04-23T02:08:29;98625.38;;;22.29;49.39
35704;BME280;21820;51.112;13.762;2023-04-23T02:10:55;98617.34;;;22.30;49.45
35704;BME280;21820;51.112;13.762;2023-04-23T02:13:21;98622.53;;;22.38;49.36
35704;BME280;21820;51.112;13.762;2023-04-23T02:15:47;98627.63;;;22.40;49.55
35704;BME280;21820;51.112;13.762;2023-04-23T02:18:12;98616.16;;;22.41;50.12
35704;BME280;21820;51.112;13.762;2023-04-23T02:20:37;98603.41;;;22.38;49.86
35704;BME280;21820;51.112;13.762;2023-04-23T02:23:06;98603.41;;;22.38;50.16
35704;BME280;21820;51.112;13.762;2023-04-23T02:25:31;98618.09;;;22.55;49.64
35704;BME280;21820;51.112;13.762;2023-04-23T02:27:57;98621.56;;;22.47;49.55
35704;BME280;21820;51.112;13.762;2023-04-23T02:30:24;98626.06;;;22.07;47.40
35704;BME280;21820;51.112;13.762;2023-04-23T02:32:49;98608.09;;;21.95;46.92
35704;BME280;21820;51.112;13.762;2023-04-23T02:35:15;98613.78;;;22.15;46.20
35704;BME280;21820;51.112;13.762;2023-04-23T02:37:41;98619.50;;;22.19;46.33
35704;BME280;21820;51.112;13.762;2023-04-23T02:40:06;98626.34;;;22.20;46.98
35704;BME280;21820;51.112;13.762;2023-04-23T02:42:32;98622.63;;;22.14;46.39
35704;BME280;21820;51.112;13.762;2023-04-23T02:44:58;98625.06;;;22.16;45.87
35704;BME280;21820;51.112;13.762;2023-04-23T02:47:23;98629.16;;;22.10;46.17
35704;BME280;21820;51.112;13.762;2023-04-23T02:49:48;98616.25;;;22.01;46.58
35704;BME280;21820;51.112;13.762;2023-04-23T02:52:14;98634.22;;;22.12;46.40
35704;BME280;21820;51.112;13.762;2023-04-23T02:54:39;98630.97;;;22.10;46.46
35704;BME280;21820;51.112;13.762;2023-04-23T02:57:05;98619.50;;;22.11;46.12
35704;BME280;21820;51.112;13.762;2023-04-23T02:59:31;98623.28;;;22.16;45.77
35704;BME280;21820;51.112;13.762;2023-04-23T03:01:56;98620.81;;;22.23;45.90
35704;BME280;21820;51.112;13.762;2023-04-23T03:04:21;98623.44;;;22.15;46.31
35704;BME280;21820;51.112;13.762;2023-04-23T03:06:47;98619.50;;;22.19;45.82
35704;BME280;21820;51.112;13.762;2023-04-23T03:09:13;98600.69;;;22.07;45.70
35704;BME280;21820;51.112;13.762;2023-04-23T03:11:38;98606.09;;;22.14;46.43
35704;BME280;21820;51.112;13.762;2023-04-23T03:14:03;98609.34;;;22.24;48.10
35704;BME280;21820;51.112;13.762;2023-04-23T03:16:29;98603.94;;;22.25;49.03
35704;BME280;21820;51.112;13.762;2023-04-23T03:18:55;98609.59;;;22.45;48.75
35704;BME280;21820;51.112;13.762;2023-04-23T03:21:21;98609.13;;;22.41;49.46
35704;BME280;21820;51.112;13.762;2023-04-23T03:23:46;98605.69;;;22.41;49.79
35704;BME280;21820;51.112;13.762;2023-04-23T03:26:12;98608.81;;;22.44;49.59
35704;BME280;21820;51.112;13.762;2023-04-23T03:28:37;98604.00;;;22.48;49.71
35704;BME280;21820;51.112;13.762;2023-04-23T03:31:02;98596.81;;;22.50;49.45
35704;BME280;21820;51.112;13.762;2023-04-23T03:33:28;98587.97;;;22.51;49.62
35704;BME280;21820;51.112;13.762;2023-04-23T03:35:53;98589.59;;;22.52;49.89
35704;BME280;21820;51.112;13.762;2023-04-23T03:38:18;98594.97;;;22.12;46.49
35704;BME280;21820;51.112;13.762;2023-04-23T03:40:44;98597.56;;;22.12;46.99
35704;BME280;21820;51.112;13.762;2023-04-23T03:43:10;98582.19;;;22.17;46.68
35704;BME280;21820;51.112;13.762;2023-04-23T03:45:35;98580.53;;;22.24;46.55
35704;BME280;21820;51.112;13.762;2023-04-23T03:48:00;98575.97;;;22.18;46.01
35704;BME280;21820;51.112;13.762;2023-04-23T03:50:26;98572.38;;;22.19;45.74
35704;BME280;21820;51.112;13.762;2023-04-23T03:52:51;98559.78;;;22.14;46.50
35704;BME280;21820;51.112;13.762;2023-04-23T03:55:17;98565.38;;;22.11;45.97
35704;BME280;21820;51.112;13.762;2023-04-23T03:57:44;98562.59;;;22.13;46.36
35704;BME280;21820;51.112;13.762;2023-04-23T04:00:10;98558.31;;;22.12;46.54
35704;BME280;21820;51.112;13.762;2023-04-23T04:02:36;98559.00;;;22.06;46.44
35704;BME280;21820;51.112;13.762;2023-04-23T04:05:03;98578.94;;;22.07;46.41
35704;BME280;21820;51.112;13.762;2023-04-23T04:07:28;98580.59;;;22.08;46.10
35704;BME280;21820;51.112;13.762;2023-04-23T04:09:53;98574.34;;;22.09;46.33
35704;BME280;21820;51.112;13.762;2023-04-23T04:12:19;98577.47;;;22.12;46.63
35704;BME280;21820;51.112;13.762;2023-04-23T04:14:44;98573.19;;;22.19;46.13
35704;BME280;21820;51.112;13.762;2023-04-23T04:17:09;98572.84;;;22.22;45.59
35704;BME280;21820;51.112;13.762;2023-04-23T04:19:36;98569.44;;;22.14;45.70
35704;BME280;21820;51.112;13.762;2023-04-23T04:22:01;98575.97;;;22.18;45.53
35704;BME280;21820;51.112;13.762;2023-04-23T04:24:28;98576.91;;;22.25;48.17
35704;BME280;21820;51.112;13.762;2023-04-23T04:26:59;98576.28;;;22.31;48.86
35704;BME280;21820;51.112;13.762;2023-04-23T04:29:25;98574.63;;;22.38;49.30
35704;BME280;21820;51.112;13.762;2023-04-23T04:31:51;98575.25;;;22.40;49.52
35704;BME280;21820;51.112;13.762;2023-04-23T04:34:16;98578.81;;;22.47;49.39
35704;BME280;21820;51.112;13.762;2023-04-23T04:36:42;98587.34;;;22.49;48.98
35704;BME280;21820;51.112;13.762;2023-04-23T04:39:08;98577.50;;;22.51;49.64
35704;BME280;21820;51.112;13.762;2023-04-23T04:41:35;98581.75;;;22.52;50.07
35704;BME280;21820;51.112;13.762;2023-04-23T04:44:01;98593.88;;;22.53;50.18
35704;BME280;21820;51.112;13.762;2023-04-23T04:46:26;98585.06;;;22.54;49.92
35704;BME280;21820;51.112;13.762;2023-04-23T04:48:53;98600.50;;;22.17;47.53
35704;BME280;21820;51.112;13.762;2023-04-23T04:51:19;98601.50;;;22.16;46.99
35704;BME280;21820;51.112;13.762;2023-04-23T04:53:45;98595.28;;;22.17;47.08
35704;BME280;21820;51.112;13.762;2023-04-23T04:56:10;98586.13;;;22.21;46.07
35704;BME280;21820;51.112;13.762;2023-04-23T04:58:36;98594.31;;;22.18;46.19
35704;BME280;21820;51.112;13.762;2023-04-23T05:01:01;98597.41;;;22.13;46.11
35704;BME280;21820;51.112;13.762;2023-04-23T05:03:26;98601.50;;;22.16;46.57
35704;BME280;21820;51.112;13.762;2023-04-23T05:05:52;98598.88;;;22.16;45.97
35704;BME280;21820;51.112;13.762;2023-04-23T05:08:23;98582.22;;;22.09;46.21
35704;BME280;21820;51.112;13.762;2023-04-23T05:10:49;98596.59;;;22.21;46.38
35704;BME280;21820;51.112;13.762;2023-04-23T05:13:15;98599.72;;;22.16;45.75
35704;BME280;21820;51.112;13.762;2023-04-23T05:15:40;98596.25;;;22.24;45.62
35704;BME280;21820;51.112;13.762;2023-04-23T05:18:05;98606.22;;;22.20;45.94
35704;BME280;21820;51.112;13.762;2023-04-23T05:20:32;98605.75;;;22.17;45.84
35704;BME280;21820;51.112;13.762;2023-04-23T05:22:57;98599.03;;;22.22;46.06
35704;BME280;21820;51.112;13.762;2023-04-23T05:25:29;98608.69;;;22.22;45.90
35704;BME280;21820;51.112;13.762;2023-04-23T05:27:55;98606.75;;;22.16;46.37
35704;BME280;21820;51.112;13.762;2023-04-23T05:30:20;98610.34;;;22.23;45.80
35704;BME280;21820;51.112;13.762;2023-04-23T05:32:45;98614.25;;;22.19;46.30
35704;BME280;21820;51.112;13.762;2023-04-23T05:35:11;98618.81;;;22.33;47.14
35704;BME280;21820;51.112;13.762;2023-04-23T05:37:36;98614.72;;;22.30;48.22
35704;BME280;21820;51.112;13.762;2023-04-23T05:40:02;98620.44;;;22.34;48.52
35704;BME280;21820;51.112;13.762;2023-04-23T05:42:29;98611.91;;;22.40;49.18
35704;BME280;21820;51.112;13.762;2023-04-23T05:44:55;98602.59;;;22.37;48.94
35704;BME280;21820;51.112;13.762;2023-04-23T05:47:20;98621.38;;;22.49;49.74
35704;BME280;21820;51.112;13.762;2023-04-23T05:49:45;98617.44;;;22.53;49.13
35704;BME280;21820;51.112;13.762;2023-04-23T05:52:11;98623.53;;;22.53;49.57
35704;BME280;21820;51.112;13.762;2023-04-23T05:54:36;98625.16;;;22.54;49.67
35704;BME280;21820;51.112;13.762;2023-04-23T05:57:02;98622.38;;;22.56;50.05
35704;BME280;21820;51.112;13.762;2023-04-23T05:59:28;98620.56;;;22.56;50.09
35704;BME280;21820;51.112;13.762;2023-04-23T06:01:54;98619.66;;;22.17;47.14
35704;BME280;21820;51.112;13.762;2023-04-23T06:04:19;98629.28;;;22.25;46.15
35704;BME280;21820;51.112;13.762;2023-04-23T06:06:45;98608.84;;;22.20;46.32
35704;BME280;21820;51.112;13.762;2023-04-23T06:09:10;98614.75;;;22.22;45.98
35704;BME280;21820;51.112;13.762;2023-04-23T06:11:36;98614.59;;;22.16;46.17
35704;BME280;21820;51.112;13.762;2023-04-23T06:14:02;98613.44;;;22.18;45.95
35704;BME280;21820;51.112;13.762;2023-04-23T06:16:28;98624.91;;;22.17;45.94
35704;BME280;21820;51.112;13.762;2023-04-23T06:18:53;98615.59;;;22.15;46.13
35704;BME280;21820;51.112;13.762;2023-04-23T06:21:22;98615.28;;;22.10;46.15
35704;BME280;21820;51.112;13.762;2023-04-23T06:23:48;98616.91;;;22.11;46.23
35704;BME280;21820;51.112;13.762;2023-04-23T06:26:13;98615.59;;;22.15;46.04
35704;BME280;21820;51.112;13.762;2023-04-23T06:28:44;98625.06;;;22.16;46.02
35704;BME280;21820;51.112;13.762;2023-04-23T06:31:10;98620.97;;;22.21;46.05
35704;BME280;21820;51.112;13.762;2023-04-23T06:33:35;98624.06;;;22.17;45.76
35704;BME280;21820;51.112;13.762;2023-04-23T06:36:04;98626.53;;;22.26;45.76
35704;BME280;21820;51.112;13.762;2023-04-23T06:38:30;98626.03;;;22.23;45.84
35704;BME280;21820;51.112;13.762;2023-04-23T06:40:56;98628.19;;;22.19;46.10
35704;BME280;21820;51.112;13.762;2023-04-23T06:43:22;98631.28;;;22.23;46.07
35704;BME280;21820;51.112;13.762;2023-04-23T06:45:48;98629.47;;;22.23;46.13
35704;BME280;21820;51.112;13.762;2023-04-23T06:48:13;98608.69;;;22.14;45.72
35704;BME280;21820;51.112;13.762;2023-04-23T06:50:39;98638.94;;;22.32;48.15
35704;BME280;21820;51.112;13.762;2023-04-23T06:53:04;98627.13;;;22.36;48.73
35704;BME280;21820;51.112;13.762;2023-04-23T06:55:30;98636.13;;;22.42;48.95
35704;BME280;21820;51.112;13.762;2023-04-23T06:57:55;98628.59;;;22.47;49.53
35704;BME280;21820;51.112;13.762;2023-04-23T07:00:21;98639.38;;;22.52;48.88
35704;BME280;21820;51.112;13.762;2023-04-23T07:02:47;98628.59;;;22.55;48.98
35704;BME280;21820;51.112;13.762;2023-04-23T07:05:12;98636.28;;;22.56;49.63
35704;BME280;21820;51.112;13.762;2023-04-23T07:07:37;98641.34;;;22.58;49.62
35704;BME280;21820;51.112;13.762;2023-04-23T07:10:05;98644.63;;;22.60;50.05
35704;BME280;21820;51.112;13.762;2023-04-23T07:12:31;98634.31;;;22.58;48.59
35704;BME280;21820;51.112;13.762;2023-04-23T07:14:56;98644.69;;;22.12;46.63
35704;BME280;21820;51.112;13.762;2023-04-23T07:17:21;98650.91;;;22.19;46.25
35704;BME280;21820;51.112;13.762;2023-04-23T07:19:47;98653.69;;;22.17;46.24
35704;BME280;21820;51.112;13.762;2023-04-23T07:22:12;98647.94;;;22.22;46.78
35704;BME280;21820;51.112;13.762;2023-04-23T07:24:38;98655.81;;;22.22;46.17
35704;BME280;21820;51.112;13.762;2023-04-23T07:27:04;98645.66;;;22.19;46.17
35704;BME280;21820;51.112;13.762;2023-04-23T07:29:29;98652.38;;;22.13;46.45
35704;BME280;21820;51.112;13.762;2023-04-23T07:31:55;98637.69;;;22.04;46.28
35704;BME280;21820;51.112;13.762;2023-04-23T07:34:20;98654.69;;;22.24;45.71
35704;BME280;21820;51.112;13.762;2023-04-23T07:36:46;98655.81;;;22.22;46.44
35704;BME280;21820;51.112;13.762;2023-04-23T07:39:11;98657.75;;;22.20;46.07
35704;BME280;21820;51.112;13.762;2023-04-23T07:41:37;98656.47;;;22.16;45.85
35704;BME280;21820;51.112;13.762;2023-04-23T07:44:02;98657.75;;;22.20;45.83
35704;BME280;21820;51.112;13.762;2023-04-23T07:46:28;98658.09;;;22.25;46.13
35704;BME280;21820;51.112;13.762;2023-04-23T07:48:53;98659.56;;;22.27;45.66
35704;BME280;21820;51.112;13.762;2023-04-23T07:51:19;98655.34;;;22.26;45.77
35704;BME280;21820;51.112;13.762;2023-04-23T07:53:46;98660.41;;;22.28;46.03
35704;BME280;21820;51.112;13.762;2023-04-23T07:56:13;98660.88;;;22.31;47.88
35704;BME280;21820;51.112;13.762;2023-04-23T07:58:38;98664.63;;;22.37;48.74
35704;BME280;21820;51.112;13.762;2023-04-23T08:01:03;98658.06;;;22.41;49.14
35704;BME280;21820;51.112;13.762;2023-04-23T08:03:29;98669.34;;;22.49;49.11
35704;BME280;21820;51.112;13.762;2023-04-23T08:05:54;98668.88;;;22.54;49.66
35704;BME280;21820;51.112;13.762;2023-04-23T08:08:21;98670.50;;;22.55;49.34
35704;BME280;21820;51.112;13.762;2023-04-23T08:10:46;98665.91;;;22.57;49.73
35704;BME280;21820;51.112;13.762;2023-04-23T08:13:12;98669.19;;;22.59;49.30
35704;BME280;21820;51.112;13.762;2023-04-23T08:15:37;98671.63;;;22.60;49.35
35704;BME280;21820;51.112;13.762;2023-04-23T08:18:03;98671.47;;;22.62;49.72
35704;BME280;21820;51.112;13.762;2023-04-23T08:20:28;98672.19;;;22.24;46.96
35704;BME280;21820;51.112;13.762;2023-04-23T08:22:54;98662.38;;;22.18;47.05
35704;BME280;21820;51.112;13.762;2023-04-23T08:25:20;98666.25;;;22.30;46.71
35704;BME280;21820;51.112;13.762;2023-04-23T08:27:46;98659.72;;;22.34;46.14
35704;BME280;21820;51.112;13.762;2023-04-23T08:30:11;98670.03;;;22.27;46.12
35704;BME280;21820;51.112;13.762;2023-04-23T08:32:40;98663.66;;;22.30;45.49
35704;BME280;21820;51.112;13.762;2023-04-23T08:35:06;98663.50;;;22.31;45.41
35704;BME280;21820;51.112;13.762;2023-04-23T08:37:32;98669.72;;;22.30;45.74
35704;BME280;21820;51.112;13.762;2023-04-23T08:39:59;98673.50;;;22.28;46.03
35704;BME280;21820;51.112;13.762;2023-04-23T08:42:52;98672.84;;;22.26;45.91
35704;BME280;21820;51.112;13.762;2023-04-23T08:45:20;98669.22;;;22.27;45.22
35704;BME280;21820;51.112;13.762;2023-04-23T08:47:46;98673.81;;;22.33;45.64
35704;BME280;21820;51.112;13.762;2023-04-23T08:50:13;98684.28;;;22.33;45.21
35704;BME280;21820;51.112;13.762;2023-04-23T08:52:41;98679.69;;;22.43;46.94
35704;BME280;21820;51.112;13.762;2023-04-23T08:55:10;98675.44;;;22.34;48.13
35704;BME280;21820;51.112;13.762;2023-04-23T08:57:40;98679.03;;;22.41;49.15
35704;BME280;21820;51.112;13.762;2023-04-23T09:00:07;98681.63;;;22.49;49.28
35704;BME280;21820;51.112;13.762;2023-04-23T09:02:39;98684.25;;;22.49;49.30
35704;BME280;21820;51.112;13.762;2023-04-23T09:05:06;98692.44;;;22.54;48.99
35704;BME280;21820;51.112;13.762;2023-04-23T09:07:32;98690.50;;;22.56;49.43
35704;BME280;21820;51.112;13.762;2023-04-23T09:09:58;98693.56;;;22.67;49.56
35704;BME280;21820;51.112;13.762;2023-04-23T09:12:23;98684.56;;;22.62;49.26
35704;BME280;21820;51.112;13.762;2023-04-23T09:14:49;98675.38;;;22.50;49.44
35704;BME280;21820;51.112;13.762;2023-04-23T09:17:17;98699.97;;;22.41;47.37
35704;BME280;21820;51.112;13.762;2023-04-23T09:19:44;98688.91;;;22.15;46.87
35704;BME280;21820;51.112;13.762;2023-04-23T09:22:09;98694.91;;;22.23;46.53
35704;BME280;21820;51.112;13.762;2023-04-23T09:24:35;98693.78;;;22.26;46.20
35704;BME280;21820;51.112;13.762;2023-04-23T09:27:00;98675.13;;;22.21;46.04
35704;BME280;21820;51.112;13.762;2023-04-23T09:29:26;98704.25;;;22.34;46.20
35704;BME280;21820;51.112;13.762;2023-04-23T09:32:07;98697.38;;;22.33;45.87
35704;BME280;21820;51.112;13.762;2023-04-23T09:34:34;98692.13;;;22.25;46.34
35704;BME280;21820;51.112;13.762;2023-04-23T09:37:04;98701.97;;;22.31;45.45
35704;BME280;21820;51.112;13.762;2023-04-23T09:39:32;98703.25;;;22.35;45.43
35704;BME280;21820;51.112;13.762;2023-04-23T09:42:03;98701.97;;;22.31;45.96
35704;BME280;21820;51.112;13.762;2023-04-23T09:44:31;98699.66;;;22.36;46.19
35704;BME280;21820;51.112;13.762;2023-04-23T09:47:05;98703.25;;;22.35;45.63
35704;BME280;21820;51.112;13.762;2023-04-23T09:49:44;98695.72;;;22.32;45.64
35704;BME280;21820;51.112;13.762;2023-04-23T09:52:09;98702.09;;;22.37;48.30
35704;BME280;21820;51.112;13.762;2023-04-23T09:54:34;98702.59;;;22.41;48.82
35704;BME280;21820;51.112;13.762;2023-04-23T09:57:00;98699.47;;;22.45;48.44
35704;BME280;21820;51.112;13.762;2023-04-23T09:59:28;98687.69;;;22.49;48.84
35704;BME280;21820;51.112;13.762;2023-04-23T10:01:55;98690.94;;;22.51;48.98
35704;BME280;21820;51.112;13.762;2023-04-23T10:04:22;98702.94;;;22.54;49.15
35704;BME280;21820;51.112;13.762;2023-04-23T10:06:56;98698.97;;;22.58;50.04
35704;BME280;21820;51.112;13.762;2023-04-23T10:09:23;98697.00;;;22.60;49.64
35704;BME280;21820;51.112;13.762;2023-04-23T10:11:56;98701.91;;;22.71;49.45
35704;BME280;21820;51.112;13.762;2023-04-23T10:14:22;98703.56;;;22.64;49.91
35704;BME280;21820;51.112;13.762;2023-04-23T10:16:56;98697.69;;;22.22;46.47
35704;BME280;21820;51.112;13.762;2023-04-23T10:19:23;98701.81;;;22.24;46.81
35704;BME280;21820;51.112;13.762;2023-04-23T10:21:52;98694.91;;;22.23;45.83
35704;BME280;21820;51.112;13.762;2023-04-23T10:24:22;98692.63;;;22.28;46.26
35704;BME280;21820;51.112;13.762;2023-04-23T10:26:48;98694.25;;;22.37;45.79
35704;BME280;21820;51.112;13.762;2023-04-23T10:29:16;98694.41;;;22.36;45.85
35704;BME280;21820;51.112;13.762;2023-04-23T10:31:42;98693.25;;;22.38;45.97
35704;BME280;21820;51.112;13.762;2023-04-23T10:34:09;98692.78;;;22.35;45.41
35704;BME280;21820;51.112;13.762;2023-04-23T10:36:38;98684.13;;;22.26;45.31
35704;BME280;21820;51.112;13.762;2023-04-23T10:39:04;98693.75;;;22.34;46.07
35704;BME280;21820;51.112;13.762;2023-04-23T10:41:37;98689.03;;;22.29;45.62
35704;BME280;21820;51.112;13.762;2023-04-23T10:44:04;98692.94;;;22.33;45.93
35704;BME280;21820;51.112;13.762;2023-04-23T10:46:30;98685.91;;;22.34;45.26
35704;BME280;21820;51.112;13.762;2023-04-23T10:49:12;98687.22;;;22.38;48.84
35704;BME280;21820;51.112;13.762;2023-04-23T10:51:44;98686.41;;;22.37;48.22
35704;BME280;21820;51.112;13.762;2023-04-23T10:54:13;98687.84;;;22.48;48.69
35704;BME280;21820;51.112;13.762;2023-04-23T10:56:40;98685.88;;;22.50;49.04
35704;BME280;21820;51.112;13.762;2023-04-23T10:59:21;98662.97;;;22.44;49.52
35704;BME280;21820;51.112;13.762;2023-04-23T11:01:48;98672.78;;;22.58;49.85
35704;BME280;21820;51.112;13.762;2023-04-23T11:04:25;98677.72;;;22.61;49.50
35704;BME280;21820;51.112;13.762;2023-04-23T11:06:55;98663.13;;;22.50;49.41
35704;BME280;21820;51.112;13.762;2023-04-23T11:17:05;98698.88;;;22.19;46.31
35704;BME280;21820;51.112;13.762;2023-04-23T11:19:35;98695.72;;;22.40;45.77
35704;BME280;21820;51.112;13.762;2023-04-23T11:22:05;98697.69;;;22.38;46.02
35704;BME280;21820;51.112;13.762;2023-04-23T11:24:40;98684.28;;;22.33;45.67
35704;BME280;21820;51.112;13.762;2023-04-23T11:27:09;98684.59;;;22.30;45.89
35704;BME280;21820;51.112;13.762;2023-04-23T11:29:36;98693.44;;;22.29;46.29
35704;BME280;21820;51.112;13.762;2023-04-23T11:32:02;98687.53;;;22.27;45.61
35704;BME280;21820;51.112;13.762;2023-04-23T11:34:30;98704.25;;;22.34;46.09
35704;BME280;21820;51.112;13.762;2023-04-23T11:36:57;98712.25;;;22.32;45.68
35704;BME280;21820;51.112;13.762;2023-04-23T11:39:23;98702.63;;;22.33;45.76
35704;BME280;21820;51.112;13.762;2023-04-23T11:41:49;98701.97;;;22.31;45.99
35704;BME280;21820;51.112;13.762;2023-04-23T11:44:16;98696.38;;;22.34;45.97
35704;BME280;21820;51.112;13.762;2023-04-23T11:46:42;98680.66;;;22.34;47.38
35704;BME280;21820;51.112;13.762;2023-04-23T11:49:08;98692.13;;;22.41;48.80
35704;BME280;21820;51.112;13.762;2023-04-23T11:51:33;98683.59;;;22.47;49.20
35704;BME280;21820;51.112;13.762;2023-04-23T11:54:03;98684.91;;;22.59;48.78
35704;BME280;21820;51.112;13.762;2023-04-23T11:56:31;98693.91;;;22.56;49.25
35704;BME280;21820;51.112;13.762;2023-04-23T11:59:01;98692.13;;;22.57;49.43
35704;BME280;21820;51.112;13.762;2023-04-23T12:01:41;98701.13;;;22.62;49.68
35704;BME280;21820;51.112;13.762;2023-04-23T12:04:15;98701.91;;;22.63;49.52
35704;BME280;21820;51.112;13.762;2023-04-23T12:06:42;98699.28;;;22.63;50.04
35704;BME280;21820;51.112;13.762;2023-04-23T12:09:08;98698.31;;;22.64;49.79
35704;BME280;21820;51.112;13.762;2023-04-23T12:11:35;98697.69;;;22.38;47.51
35704;BME280;21820;51.112;13.762;2023-04-23T12:14:01;98687.72;;;22.25;47.18
35704;BME280;21820;51.112;13.762;2023-04-23T12:16:38;98694.09;;;22.31;45.98
35704;BME280;21820;51.112;13.762;2023-04-23T12:19:11;98705.06;;;22.34;46.45
35704;BME280;21820;51.112;13.762;2023-04-23T12:21:52;98703.72;;;22.38;46.32
35704;BME280;21820;51.112;13.762;2023-04-23T12:24:20;98688.53;;;22.26;45.89
35704;BME280;21820;51.112;13.762;2023-04-23T12:26:55;98704.91;;;22.36;45.81
35704;BME280;21820;51.112;13.762;2023-04-23T12:29:23;98699.03;;;22.26;46.11
35704;BME280;21820;51.112;13.762;2023-04-23T12:31:52;98683.81;;;22.21;45.63
35704;BME280;21820;51.112;13.762;2023-04-23T12:34:19;98686.28;;;22.15;45.87
35704;BME280;21820;51.112;13.762;2023-04-23T12:36:48;98694.28;;;22.29;45.51
35704;BME280;21820;51.112;13.762;2023-04-23T12:39:31;98698.34;;;22.32;45.89
35704;BME280;21820;51.112;13.762;2023-04-23T12:42:06;98698.34;;;22.32;45.52
35704;BME280;21820;51.112;13.762;2023-04-23T12:44:33;98698.00;;;22.35;46.73
35704;BME280;21820;51.112;13.762;2023-04-23T12:47:02;98694.41;;;22.36;48.35
35704;BME280;21820;51.112;13.762;2023-04-23T12:49:28;98684.94;;;22.43;48.69
35704;BME280;21820;51.112;13.762;2023-04-23T12:51:54;98679.97;;;22.48;48.61
35704;BME280;21820;51.112;13.762;2023-04-23T12:54:26;98665.94;;;22.41;49.12
35704;BME280;21820;51.112;13.762;2023-04-23T12:56:52;98680.97;;;22.55;49.32